createdAt,value
2023-03-19T00:00:00.407Z,626.2
2023-03-19T00:01:02.905Z,625.8
2023-03-19T00:03:10.684Z,625.7
2023-03-19T00:04:13.251Z,625.4
2023-03-19T00:05:15.223Z,625.5
2023-03-19T00:06:17.721Z,626.2
2023-03-19T00:07:20.206Z,626
2023-03-19T00:08:22.454Z,626.4
2023-03-19T00:09:25.057Z,625.9
2023-03-19T00:10:27.337Z,626.1
2023-03-19T00:11:29.840Z,626.1
2023-03-19T00:12:32.052Z,625.8
2023-03-19T00:13:34.272Z,625.9
2023-03-19T00:14:36.789Z,626.6
2023-03-19T00:15:39.048Z,626
2023-03-19T00:16:41.907Z,626
2023-03-19T00:17:44.863Z,626.4
2023-03-19T00:18:47.393Z,626.6
2023-03-19T00:19:49.384Z,626.5
2023-03-19T00:20:51.873Z,626.2
2023-03-19T00:21:54.383Z,626.6
2023-03-19T00:22:56.928Z,626.2
2023-03-19T00:23:59.445Z,626.3
2023-03-19T00:25:02.193Z,626.4
2023-03-19T00:26:04.424Z,626.7
2023-03-19T00:27:06.928Z,626.8
2023-03-19T00:28:09.207Z,626.7
2023-03-19T00:29:11.464Z,626.3
2023-03-19T00:30:14.011Z,626.6
2023-03-19T00:31:16.285Z,626.4
2023-03-19T00:32:18.543Z,625.9
2023-03-19T00:33:20.770Z,626.1
2023-03-19T00:34:23.001Z,626.2
2023-03-19T00:35:25.601Z,625.8
2023-03-19T00:36:27.870Z,625.8
2023-03-19T00:37:29.956Z,626
2023-03-19T00:38:32.470Z,625.8
2023-03-19T00:39:34.993Z,625.5
2023-03-19T00:40:37.318Z,625.5
2023-03-19T00:41:39.820Z,625.4
2023-03-19T00:42:41.496Z,625.2
2023-03-19T00:43:43.533Z,625.4
2023-03-19T00:44:46.176Z,625.3
2023-03-19T00:45:48.163Z,625
2023-03-19T00:46:50.416Z,624.9
2023-03-19T00:47:52.671Z,624.7
2023-03-19T00:48:55.194Z,624.9
2023-03-19T00:49:57.835Z,624.7
2023-03-19T00:50:59.797Z,624.4
2023-03-19T00:52:02.305Z,624.6
2023-03-19T00:53:04.809Z,624.7
2023-03-19T00:54:07.050Z,624.8
2023-03-19T00:55:09.307Z,624.6
2023-03-19T00:56:11.894Z,624.8
2023-03-19T00:57:14.406Z,624.8
2023-03-19T00:58:16.649Z,625.1
2023-03-19T00:59:19.185Z,625
2023-03-19T01:00:22.724Z,625.2
2023-03-19T01:01:25.507Z,625
2023-03-19T01:02:28.091Z,625.4
2023-03-19T01:03:30.331Z,625.6
2023-03-19T01:04:32.854Z,626.1
2023-03-19T01:06:38.598Z,626.2
2023-03-19T01:07:40.572Z,625.9
2023-03-19T01:08:42.546Z,626.3
2023-03-19T01:09:45.071Z,625.7
2023-03-19T01:10:47.272Z,625.4
2023-03-19T01:11:50.107Z,625.5
2023-03-19T01:12:52.320Z,625
2023-03-19T01:13:54.810Z,624.8
2023-03-19T01:14:57.041Z,624.9
2023-03-19T01:15:59.551Z,624.2
2023-03-19T01:17:01.953Z,624.2
2023-03-19T01:18:04.259Z,623.7
2023-03-19T01:19:06.903Z,623.7
2023-03-19T01:20:09.115Z,624
2023-03-19T01:21:11.628Z,623.9
2023-03-19T01:22:13.887Z,623.9
2023-03-19T01:23:16.097Z,623.6
2023-03-19T01:24:18.607Z,623.4
2023-03-19T01:25:21.133Z,623.8
2023-03-19T01:26:23.636Z,623.7
2023-03-19T01:27:26.235Z,623.3
2023-03-19T01:28:28.446Z,623.2
2023-03-19T01:29:31.060Z,623.3
2023-03-19T01:30:34.907Z,623.6
2023-03-19T01:31:37.915Z,623.8
2023-03-19T01:32:40.660Z,623.5
2023-03-19T01:33:42.870Z,623.3
2023-03-19T01:34:45.107Z,623.4
2023-03-19T01:35:47.495Z,623.8
2023-03-19T01:36:49.817Z,624
2023-03-19T01:37:52.325Z,623.9
2023-03-19T01:38:54.826Z,624.2
2023-03-19T01:39:57.304Z,624.4
2023-03-19T01:40:59.753Z,624.6
2023-03-19T01:42:02.242Z,624.8
2023-03-19T01:43:04.861Z,625
2023-03-19T01:44:07.087Z,625
2023-03-19T01:45:09.574Z,624.8
2023-03-19T01:46:12.099Z,625
2023-03-19T01:47:14.330Z,624.7
2023-03-19T01:48:16.830Z,624
2023-03-19T01:49:18.772Z,624.1
2023-03-19T01:50:21.012Z,624
2023-03-19T01:51:23.516Z,623.8
2023-03-19T01:52:26.059Z,624.2
2023-03-19T01:53:28.602Z,623.9
2023-03-19T01:54:30.818Z,623.9
2023-03-19T01:55:33.336Z,624.1
2023-03-19T01:56:35.878Z,624
2023-03-19T01:57:38.145Z,623.8
2023-03-19T01:58:40.767Z,624
2023-03-19T01:59:42.983Z,624.1
2023-03-19T02:00:45.196Z,624.1
2023-03-19T02:01:47.764Z,624.3
2023-03-19T02:02:50.280Z,624.4
2023-03-19T02:03:52.678Z,624.1
2023-03-19T02:04:55.768Z,623.9
2023-03-19T02:05:57.756Z,624.2
2023-03-19T02:06:59.734Z,623.9
2023-03-19T02:08:02.214Z,623.5
2023-03-19T02:09:04.738Z,623.3
2023-03-19T02:10:07.279Z,623.2
2023-03-19T02:11:09.493Z,623
2023-03-19T02:12:12.019Z,622.6
2023-03-19T02:13:14.393Z,623.2
2023-03-19T02:14:17.011Z,623.2
2023-03-19T02:15:19.531Z,623.5
2023-03-19T02:16:22.026Z,623.5
2023-03-19T02:17:24.287Z,623.8
2023-03-19T02:18:26.497Z,623.8
2023-03-19T02:19:29.044Z,624
2023-03-19T02:20:31.282Z,623.6
2023-03-19T02:21:33.491Z,623.8
2023-03-19T02:22:35.434Z,624.1
2023-03-19T02:23:37.645Z,624.3
2023-03-19T02:24:40.201Z,624.5
2023-03-19T02:25:42.480Z,624.6
2023-03-19T02:26:45.087Z,624.4
2023-03-19T02:27:47.569Z,624.6
2023-03-19T02:28:49.565Z,624.3
2023-03-19T02:29:52.159Z,624.4
2023-03-19T02:30:54.666Z,624.5
2023-03-19T02:31:56.593Z,624.1
2023-03-19T02:32:59.408Z,624
2023-03-19T02:34:01.153Z,624.4
2023-03-19T02:35:03.380Z,624.8
2023-03-19T02:36:06.106Z,624.4
2023-03-19T02:37:08.373Z,624.3
2023-03-19T02:38:10.851Z,624.1
2023-03-19T02:39:13.365Z,624.1
2023-03-19T02:40:15.904Z,623.7
2023-03-19T02:41:18.171Z,624.2
2023-03-19T02:42:20.671Z,623.6
2023-03-19T02:43:23.181Z,623.8
2023-03-19T02:44:25.672Z,623.7
2023-03-19T02:45:28.278Z,623.9
2023-03-19T02:46:30.779Z,624
2023-03-19T02:47:33.100Z,624.2
2023-03-19T02:48:35.601Z,624.2
2023-03-19T02:49:38.094Z,623.7
2023-03-19T02:50:39.788Z,624
2023-03-19T02:51:42.300Z,623.8
2023-03-19T02:52:44.512Z,623.5
2023-03-19T02:53:46.786Z,623.5
2023-03-19T02:54:49.297Z,623.3
2023-03-19T02:55:51.840Z,623.1
2023-03-19T02:56:54.363Z,623
2023-03-19T02:57:56.858Z,622.9
2023-03-19T02:58:59.116Z,622.5
2023-03-19T03:00:01.752Z,622.5
2023-03-19T03:01:04.748Z,622.5
2023-03-19T03:02:07.390Z,622.4
2023-03-19T03:03:09.929Z,622.4
2023-03-19T03:04:12.142Z,622.3
2023-03-19T03:05:14.106Z,622.5
2023-03-19T03:06:16.347Z,621.6
2023-03-19T03:07:18.587Z,622.3
2023-03-19T03:08:21.136Z,621.4
2023-03-19T03:09:23.072Z,621.3
2023-03-19T03:10:25.307Z,621.5
2023-03-19T03:11:27.936Z,621.3
2023-03-19T03:12:30.613Z,621.3
2023-03-19T03:13:33.107Z,621.9
2023-03-19T03:14:35.310Z,621.6
2023-03-19T03:15:37.557Z,622.1
2023-03-19T03:16:40.410Z,622.1
2023-03-19T03:17:42.928Z,621.3
2023-03-19T03:18:45.172Z,621.3
2023-03-19T03:19:47.671Z,621.2
2023-03-19T03:20:50.027Z,620.8
2023-03-19T03:21:52.617Z,621.3
2023-03-19T03:22:54.845Z,621.6
2023-03-19T03:23:57.092Z,620.8
2023-03-19T03:24:59.579Z,621.3
2023-03-19T03:26:01.617Z,621.2
2023-03-19T03:27:04.179Z,621.4
2023-03-19T03:28:06.379Z,621.5
2023-03-19T03:29:08.646Z,621.9
2023-03-19T03:30:10.581Z,621.9
2023-03-19T03:31:13.519Z,621.8
2023-03-19T03:32:15.866Z,622.2
2023-03-19T03:33:18.089Z,621.6
2023-03-19T03:34:20.036Z,621.8
2023-03-19T03:35:22.841Z,621.9
2023-03-19T03:36:25.377Z,620.9
2023-03-19T03:37:27.581Z,621.8
2023-03-19T03:38:29.810Z,621.1
2023-03-19T03:39:32.052Z,621.2
2023-03-19T03:40:36.455Z,621.2
2023-03-19T03:41:39.129Z,620.5
2023-03-19T03:42:41.648Z,620.4
2023-03-19T03:43:44.139Z,620.9
2023-03-19T03:44:46.673Z,620.2
2023-03-19T03:45:49.498Z,620.2
2023-03-19T03:46:52.034Z,620.5
2023-03-19T03:47:54.650Z,619.9
2023-03-19T03:48:56.861Z,620.2
2023-03-19T03:49:59.356Z,620.1
2023-03-19T03:51:01.859Z,620.3
2023-03-19T03:52:04.361Z,620.2
2023-03-19T03:53:06.566Z,620.3
2023-03-19T03:54:09.069Z,620.2
2023-03-19T03:55:11.648Z,620.4
2023-03-19T03:56:14.200Z,620
2023-03-19T03:57:16.731Z,620
2023-03-19T03:58:19.066Z,619.6
2023-03-19T03:59:21.274Z,619.4
2023-03-19T04:00:23.528Z,619.3
2023-03-19T04:01:25.743Z,618.9
2023-03-19T04:02:28.345Z,618.9
2023-03-19T04:03:31.107Z,618.7
2023-03-19T04:04:33.069Z,618.8
2023-03-19T04:05:35.305Z,618.9
2023-03-19T04:06:37.346Z,619.3
2023-03-19T04:07:40.217Z,619.1
2023-03-19T04:08:42.733Z,619.8
2023-03-19T04:09:45.244Z,619.7
2023-03-19T04:10:47.775Z,619.7
2023-03-19T04:12:55.265Z,620
2023-03-19T04:13:57.810Z,619.7
2023-03-19T04:15:00.397Z,619.7
2023-03-19T04:16:02.895Z,619.5
2023-03-19T04:17:04.810Z,619.4
2023-03-19T04:18:07.357Z,619.1
2023-03-19T04:19:09.942Z,619.1
2023-03-19T04:20:12.174Z,619
2023-03-19T04:21:14.697Z,619
2023-03-19T04:22:17.190Z,619
2023-03-19T04:23:19.462Z,618.7
2023-03-19T04:24:21.950Z,618.2
2023-03-19T04:25:24.167Z,618.4
2023-03-19T04:26:26.680Z,618.1
2023-03-19T04:27:28.924Z,617.3
2023-03-19T04:28:31.149Z,618
2023-03-19T04:29:33.421Z,617.4
2023-03-19T04:30:39.032Z,617.6
2023-03-19T04:31:41.791Z,617.8
2023-03-19T04:32:44.538Z,617.8
2023-03-19T04:33:47.114Z,617.6
2023-03-19T04:34:49.744Z,617.6
2023-03-19T04:35:52.536Z,617.5
2023-03-19T04:36:54.764Z,617.6
2023-03-19T04:37:56.708Z,617.5
2023-03-19T04:38:59.211Z,617.2
2023-03-19T04:40:01.469Z,617.4
2023-03-19T04:41:04.006Z,617
2023-03-19T04:42:06.541Z,617.4
2023-03-19T04:43:09.024Z,617.4
2023-03-19T04:44:11.535Z,617.2
2023-03-19T04:45:14.086Z,617.3
2023-03-19T04:46:16.668Z,617.8
2023-03-19T04:47:19.219Z,617.5
2023-03-19T04:48:21.756Z,617.5
2023-03-19T04:49:24.245Z,617.4
2023-03-19T04:50:26.916Z,617.3
2023-03-19T04:51:28.867Z,617.1
2023-03-19T04:52:31.127Z,616.7
2023-03-19T04:53:33.360Z,616.6
2023-03-19T04:54:35.583Z,617.1
2023-03-19T04:55:38.103Z,616.7
2023-03-19T04:56:40.590Z,616.4
2023-03-19T04:57:42.827Z,616.3
2023-03-19T04:58:45.074Z,616
2023-03-19T04:59:47.274Z,616.2
2023-03-19T05:00:49.878Z,616.6
2023-03-19T05:01:52.477Z,616.6
2023-03-19T05:02:54.689Z,616
2023-03-19T05:03:57.424Z,616.5
2023-03-19T05:04:59.913Z,616.5
2023-03-19T05:06:02.517Z,616.3
2023-03-19T05:07:04.733Z,616.1
2023-03-19T05:08:07.280Z,615.7
2023-03-19T05:09:09.534Z,615.3
2023-03-19T05:10:11.809Z,614.9
2023-03-19T05:11:13.756Z,615.1
2023-03-19T05:12:15.776Z,614.8
2023-03-19T05:13:21.595Z,615
2023-03-19T05:14:24.250Z,615.2
2023-03-19T05:15:26.458Z,614.8
2023-03-19T05:16:28.960Z,614.5
2023-03-19T05:17:31.177Z,614.8
2023-03-19T05:18:33.685Z,614.6
2023-03-19T05:19:36.212Z,614.4
2023-03-19T05:20:38.528Z,614.5
2023-03-19T05:21:41.125Z,614.8
2023-03-19T05:22:43.615Z,614.5
2023-03-19T05:23:45.862Z,614.3
2023-03-19T05:24:48.097Z,614.6
2023-03-19T05:25:50.648Z,614.4
2023-03-19T05:26:52.624Z,613.9
2023-03-19T05:27:55.126Z,613.5
2023-03-19T05:28:57.754Z,613.4
2023-03-19T05:30:00.252Z,613
2023-03-19T05:31:02.414Z,613.3
2023-03-19T05:32:04.849Z,613.1
2023-03-19T05:33:07.433Z,612.9
2023-03-19T05:34:09.968Z,613
2023-03-19T05:35:11.915Z,612.6
2023-03-19T05:36:14.434Z,612.7
2023-03-19T05:37:17.052Z,612.7
2023-03-19T05:38:19.300Z,612.6
2023-03-19T05:39:21.528Z,612.6
2023-03-19T05:40:24.040Z,612.4
2023-03-19T05:41:26.539Z,612.9
2023-03-19T05:42:28.796Z,612.5
2023-03-19T05:43:31.013Z,612.2
2023-03-19T05:44:33.510Z,612.1
2023-03-19T05:45:35.746Z,612
2023-03-19T05:46:37.764Z,611.8
2023-03-19T05:47:40.439Z,611.4
2023-03-19T05:48:42.958Z,611.4
2023-03-19T05:49:45.204Z,611.1
2023-03-19T05:50:47.139Z,610.6
2023-03-19T05:51:49.439Z,610.5
2023-03-19T05:52:52.185Z,610.9
2023-03-19T05:53:54.408Z,610.2
2023-03-19T05:54:56.915Z,609.8
2023-03-19T05:55:58.866Z,609.4
2023-03-19T05:57:01.533Z,609.2
2023-03-19T05:58:04.257Z,609.2
2023-03-19T05:59:06.489Z,608.8
2023-03-19T06:00:09.007Z,608.4
2023-03-19T06:01:11.338Z,608.4
2023-03-19T06:02:13.839Z,608.3
2023-03-19T06:03:16.377Z,608.5
2023-03-19T06:04:18.404Z,608.1
2023-03-19T06:05:20.965Z,608.2
2023-03-19T06:06:23.181Z,607.8
2023-03-19T06:07:25.693Z,607.8
2023-03-19T06:08:28.230Z,607.9
2023-03-19T06:09:30.186Z,607.7
2023-03-19T06:10:33.082Z,607.7
2023-03-19T06:11:35.421Z,607.7
2023-03-19T06:12:37.637Z,607.5
2023-03-19T06:13:39.885Z,607.7
2023-03-19T06:14:42.425Z,607.3
2023-03-19T06:15:45.187Z,606.7
2023-03-19T06:16:47.720Z,607.1
2023-03-19T06:17:50.023Z,606.5
2023-03-19T06:18:52.581Z,605.9
2023-03-19T06:19:55.091Z,606.1
2023-03-19T06:20:57.616Z,606.2
2023-03-19T06:22:00.149Z,606.1
2023-03-19T06:23:02.758Z,606
2023-03-19T06:24:05.516Z,606
2023-03-19T06:25:07.497Z,606.1
2023-03-19T06:26:09.743Z,605.7
2023-03-19T06:27:12.241Z,605.5
2023-03-19T06:28:14.756Z,605.4
2023-03-19T06:29:16.965Z,605
2023-03-19T06:30:19.493Z,604.9
2023-03-19T06:31:22.316Z,604.8
2023-03-19T06:32:24.530Z,604.7
2023-03-19T06:33:26.764Z,604.4
2023-03-19T06:34:29.347Z,604.1
2023-03-19T06:35:32.071Z,603.9
2023-03-19T06:36:34.625Z,603.5
2023-03-19T06:37:36.855Z,603.7
2023-03-19T06:38:39.352Z,603.3
2023-03-19T06:39:42.020Z,603.2
2023-03-19T06:40:44.247Z,603.3
2023-03-19T06:41:46.897Z,602.9
2023-03-19T06:42:49.400Z,603.1
2023-03-19T06:43:51.968Z,603
2023-03-19T06:44:55.795Z,603.4
2023-03-19T06:45:58.571Z,603.2
2023-03-19T06:47:00.835Z,602.9
2023-03-19T06:48:03.366Z,603.2
2023-03-19T06:49:05.951Z,603.4
2023-03-19T06:50:08.523Z,603.1
2023-03-19T06:51:11.035Z,603.4
2023-03-19T06:52:13.281Z,603.6
2023-03-19T06:53:15.551Z,603
2023-03-19T06:54:17.782Z,602.8
2023-03-19T06:55:20.097Z,603.3
2023-03-19T06:56:22.333Z,602.5
2023-03-19T06:57:24.839Z,603.2
2023-03-19T06:58:26.798Z,603.2
2023-03-19T06:59:29.333Z,602.9
2023-03-19T07:00:31.756Z,603.1
2023-03-19T07:01:33.730Z,602.7
2023-03-19T07:02:36.242Z,602.2
2023-03-19T07:03:38.744Z,602.4
2023-03-19T07:04:40.701Z,602.3
2023-03-19T07:05:43.226Z,602.4
2023-03-19T07:06:45.170Z,602
2023-03-19T07:07:47.118Z,601.8
2023-03-19T07:08:49.676Z,601.6
2023-03-19T07:09:52.204Z,601.8
2023-03-19T07:10:54.806Z,601.8
2023-03-19T07:11:57.050Z,601.4
2023-03-19T07:12:59.289Z,601
2023-03-19T07:14:01.789Z,601
2023-03-19T07:15:03.957Z,600.4
2023-03-19T07:16:06.784Z,600.2
2023-03-19T07:18:14.290Z,599.8
2023-03-19T07:19:17.298Z,599.8
2023-03-19T07:20:19.818Z,599.7
2023-03-19T07:21:22.356Z,599.7
2023-03-19T07:22:24.316Z,599.3
2023-03-19T07:23:26.807Z,598.8
2023-03-19T07:24:29.040Z,599.2
2023-03-19T07:25:31.284Z,598.4
2023-03-19T07:26:33.895Z,598.2
2023-03-19T07:27:35.847Z,598
2023-03-19T07:28:38.382Z,597.7
2023-03-19T07:29:40.892Z,598
2023-03-19T07:30:42.826Z,597.7
2023-03-19T07:31:45.643Z,597.9
2023-03-19T07:32:48.347Z,597.5
2023-03-19T07:33:50.440Z,597.8
2023-03-19T07:34:52.389Z,597.8
2023-03-19T07:35:54.593Z,597.7
2023-03-19T07:36:56.699Z,597.7
2023-03-19T07:37:58.932Z,597.2
2023-03-19T07:39:01.477Z,597.3
2023-03-19T07:40:04.018Z,597.1
2023-03-19T07:41:06.269Z,597.1
2023-03-19T07:42:08.893Z,597.2
2023-03-19T07:43:10.574Z,596.7
2023-03-19T07:44:13.089Z,596.4
2023-03-19T07:45:15.078Z,596.6
2023-03-19T07:46:17.931Z,595.9
2023-03-19T07:48:25.502Z,595.9
2023-03-19T07:49:28.008Z,595.6
2023-03-19T07:50:30.632Z,595.3
2023-03-19T07:51:33.181Z,595.8
2023-03-19T07:52:35.770Z,596
2023-03-19T07:53:38.357Z,595.9
2023-03-19T07:54:40.847Z,595.9
2023-03-19T07:55:43.376Z,595.6
2023-03-19T07:56:45.626Z,596
2023-03-19T07:57:48.137Z,596
2023-03-19T07:58:50.368Z,595.7
2023-03-19T07:59:52.597Z,595.9
2023-03-19T08:00:54.581Z,596
2023-03-19T08:01:57.105Z,595.9
2023-03-19T08:02:59.667Z,595.8
2023-03-19T08:04:02.323Z,595.7
2023-03-19T08:05:04.674Z,596.3
2023-03-19T08:06:06.896Z,595.9
2023-03-19T08:07:09.391Z,596
2023-03-19T08:08:11.675Z,596.3
2023-03-19T08:09:13.947Z,596.1
2023-03-19T08:10:16.463Z,596
2023-03-19T08:11:19.144Z,596.5
2023-03-19T08:12:21.436Z,596.1
2023-03-19T08:13:24.073Z,596.4
2023-03-19T08:14:26.341Z,596.1
2023-03-19T08:15:28.849Z,595.9
2023-03-19T08:16:30.967Z,595.9
2023-03-19T08:17:33.126Z,596
2023-03-19T08:18:35.636Z,595.7
2023-03-19T08:19:37.893Z,595.7
2023-03-19T08:20:40.425Z,595.6
2023-03-19T08:21:42.953Z,595.9
2023-03-19T08:22:45.517Z,595.8
2023-03-19T08:23:48.206Z,595.6
2023-03-19T08:24:50.464Z,595.6
2023-03-19T08:25:53.049Z,595.9
2023-03-19T08:26:55.294Z,596.1
2023-03-19T08:27:57.808Z,595.9
2023-03-19T08:29:00.145Z,595.9
2023-03-19T08:30:02.960Z,596.1
2023-03-19T08:31:05.465Z,596.3
2023-03-19T08:32:07.710Z,596.3
2023-03-19T08:33:10.439Z,596.3
2023-03-19T08:34:13.004Z,596.4
2023-03-19T08:35:15.283Z,596.8
2023-03-19T08:36:17.525Z,596.3
2023-03-19T08:37:20.055Z,596
2023-03-19T08:38:22.281Z,595.9
2023-03-19T08:39:24.845Z,595.6
2023-03-19T08:40:27.621Z,595.4
2023-03-19T08:41:30.164Z,595.1
2023-03-19T08:42:31.848Z,595.3
2023-03-19T08:43:33.804Z,595.1
2023-03-19T08:44:36.116Z,594.9
2023-03-19T08:45:38.615Z,594.7
2023-03-19T08:46:41.657Z,594.9
2023-03-19T08:47:44.010Z,594.5
2023-03-19T08:48:46.245Z,594.7
2023-03-19T08:49:49.062Z,594.4
2023-03-19T08:50:51.568Z,594.7
2023-03-19T08:51:53.787Z,594.7
2023-03-19T08:52:56.038Z,594.5
2023-03-19T08:53:58.613Z,594.4
2023-03-19T08:55:00.633Z,594.6
2023-03-19T08:56:02.893Z,594.5
2023-03-19T08:57:05.346Z,594.5
2023-03-19T08:58:07.860Z,594.7
2023-03-19T08:59:10.097Z,594.6
2023-03-19T09:00:12.742Z,594.3
2023-03-19T09:01:15.290Z,594.5
2023-03-19T09:02:17.267Z,594.3
2023-03-19T09:03:19.228Z,594.6
2023-03-19T09:04:21.649Z,594.1
2023-03-19T09:05:24.203Z,594.1
2023-03-19T09:06:26.695Z,593.9
2023-03-19T09:07:28.910Z,593.5
2023-03-19T09:08:31.483Z,593.3
2023-03-19T09:09:33.991Z,593.4
2023-03-19T09:10:37.685Z,593.1
2023-03-19T09:11:40.598Z,592.8
2023-03-19T09:12:43.135Z,592.6
2023-03-19T09:13:44.796Z,592.7
2023-03-19T09:14:47.357Z,592.9
2023-03-19T09:15:50.271Z,592.9
2023-03-19T09:16:52.817Z,592.9
2023-03-19T09:17:55.081Z,592.8
2023-03-19T09:20:02.617Z,592.2
2023-03-19T09:21:05.203Z,592.1
2023-03-19T09:22:07.162Z,592.1
2023-03-19T09:23:09.678Z,591.6
2023-03-19T09:24:11.624Z,591.8
2023-03-19T09:25:13.893Z,591.9
2023-03-19T09:26:16.119Z,591.9
2023-03-19T09:27:18.634Z,591.8
2023-03-19T09:28:21.142Z,592
2023-03-19T09:29:23.099Z,591.7
2023-03-19T09:30:25.379Z,591.9
2023-03-19T09:32:33.377Z,591.6
2023-03-19T09:33:35.649Z,591.4
2023-03-19T09:34:38.145Z,591.3
2023-03-19T09:35:40.572Z,591.2
2023-03-19T09:36:43.075Z,591
2023-03-19T09:37:45.593Z,591.3
2023-03-19T09:38:47.571Z,591
2023-03-19T09:39:50.133Z,590.5
2023-03-19T09:40:52.373Z,591.1
2023-03-19T09:41:54.330Z,590.7
2023-03-19T09:42:56.573Z,590.6
2023-03-19T09:43:58.841Z,590.8
2023-03-19T09:45:01.118Z,590.6
2023-03-19T09:46:03.638Z,590.5
2023-03-19T09:47:06.605Z,590.1
2023-03-19T09:48:09.234Z,590.2
2023-03-19T09:49:11.177Z,589.6
2023-03-19T09:50:13.675Z,589.7
2023-03-19T09:51:16.181Z,589.7
2023-03-19T09:52:18.690Z,590
2023-03-19T09:53:20.646Z,589.7
2023-03-19T09:54:23.239Z,589.8
2023-03-19T09:55:25.576Z,590.1
2023-03-19T09:56:27.803Z,590
2023-03-19T09:57:30.392Z,589.6
2023-03-19T09:58:32.956Z,589.5
2023-03-19T09:59:35.464Z,590.3
2023-03-19T10:00:38.192Z,590.1
2023-03-19T10:01:41.098Z,590.1
2023-03-19T10:02:43.534Z,590.1
2023-03-19T10:03:46.472Z,590.4
2023-03-19T10:04:49.036Z,590.6
2023-03-19T10:05:51.565Z,590.4
2023-03-19T10:06:54.084Z,590.6
2023-03-19T10:07:56.612Z,590.8
2023-03-19T10:08:59.166Z,590.8
2023-03-19T10:10:01.155Z,591.1
2023-03-19T10:11:03.703Z,591.4
2023-03-19T10:12:06.255Z,591.1
2023-03-19T10:13:08.812Z,591
2023-03-19T10:14:14.554Z,591.3
2023-03-19T10:15:19.110Z,591.7
2023-03-19T10:16:22.051Z,591.3
2023-03-19T10:17:24.025Z,591.7
2023-03-19T10:18:25.962Z,591.6
2023-03-19T10:19:28.605Z,591.4
2023-03-19T10:20:31.151Z,591.6
2023-03-19T10:21:33.360Z,591.7
2023-03-19T10:22:35.613Z,591.8
2023-03-19T10:23:37.838Z,591.7
2023-03-19T10:24:40.335Z,591.9
2023-03-19T10:25:43.493Z,591.8
2023-03-19T10:26:46.037Z,591.5
2023-03-19T10:27:48.590Z,591.5
2023-03-19T10:28:51.134Z,591.5
2023-03-19T10:29:53.406Z,591.5
2023-03-19T10:32:02.712Z,591.4
2023-03-19T10:33:05.398Z,591.6
2023-03-19T10:34:07.679Z,591.7
2023-03-19T10:35:10.309Z,591.7
2023-03-19T10:37:18.252Z,591.6
2023-03-19T10:38:20.761Z,591.5
2023-03-19T10:39:22.990Z,591.7
2023-03-19T10:40:25.253Z,591.3
2023-03-19T10:41:27.800Z,591.3
2023-03-19T10:42:34.161Z,591.3
2023-03-19T10:43:36.695Z,591.3
2023-03-19T10:44:38.963Z,591.1
2023-03-19T10:45:43.318Z,591.2
2023-03-19T10:46:45.571Z,591.2
2023-03-19T10:47:48.115Z,591.1
2023-03-19T10:48:50.636Z,591.6
2023-03-19T10:49:53.149Z,591.7
2023-03-19T10:50:55.496Z,591.9
2023-03-19T10:51:58.068Z,591.9
2023-03-19T10:53:00.621Z,591.9
2023-03-19T10:54:02.594Z,592.6
2023-03-19T10:55:04.829Z,592.5
2023-03-19T10:56:07.090Z,592.7
2023-03-19T10:57:09.035Z,592.7
2023-03-19T10:58:11.268Z,592.9
2023-03-19T10:59:13.223Z,592.8
2023-03-19T11:00:15.777Z,593.2
2023-03-19T11:01:18.451Z,593.1
2023-03-19T11:02:20.729Z,593.4
2023-03-19T11:03:23.236Z,593.6
2023-03-19T11:04:25.470Z,593.7
2023-03-19T11:05:31.884Z,593.9
2023-03-19T11:06:34.742Z,593.5
2023-03-19T11:07:37.252Z,594.1
2023-03-19T11:08:39.552Z,593.8
2023-03-19T11:09:41.795Z,594.1
2023-03-19T11:10:44.011Z,594.1
2023-03-19T11:11:50.517Z,594.6
2023-03-19T11:12:54.480Z,594.1
2023-03-19T11:13:57.003Z,594.5
2023-03-19T11:14:59.279Z,594.4
2023-03-19T11:16:01.590Z,594.4
2023-03-19T11:18:09.114Z,594.1
2023-03-19T11:19:11.643Z,594.6
2023-03-19T11:20:14.194Z,594.8
2023-03-19T11:21:16.720Z,595.2
2023-03-19T11:23:24.311Z,594.4
2023-03-19T11:24:26.835Z,594.4
2023-03-19T11:25:29.369Z,594
2023-03-19T11:26:31.891Z,593.7
2023-03-19T11:27:34.411Z,593.8
2023-03-19T11:28:36.951Z,594.3
2023-03-19T11:29:39.243Z,594.5
2023-03-19T11:30:41.506Z,594.6
2023-03-19T11:31:44.430Z,594.7
2023-03-19T11:32:47.488Z,594.9
2023-03-19T11:33:50.067Z,595.1
2023-03-19T11:34:55.159Z,595.1
2023-03-19T11:35:58.016Z,595.5
2023-03-19T11:37:00.265Z,595.2
2023-03-19T11:38:02.568Z,595.4
2023-03-19T11:39:05.202Z,595.2
2023-03-19T11:40:07.736Z,595.3
2023-03-19T11:41:10.295Z,595.7
2023-03-19T11:42:12.542Z,595.6
2023-03-19T11:43:15.214Z,595.9
2023-03-19T11:44:17.751Z,595.6
2023-03-19T11:45:20.044Z,596.2
2023-03-19T11:46:22.777Z,596.4
2023-03-19T11:48:30.334Z,596.7
2023-03-19T11:49:32.583Z,596.6
2023-03-19T11:50:34.586Z,596.2
2023-03-19T11:51:37.131Z,596.5
2023-03-19T11:52:39.384Z,596.7
2023-03-19T11:53:41.638Z,596.8
2023-03-19T11:54:44.329Z,596.6
2023-03-19T11:55:46.024Z,596.6
2023-03-19T11:56:48.547Z,596.5
2023-03-19T11:57:51.091Z,596.5
2023-03-19T11:58:53.339Z,596.4
2023-03-19T11:59:55.640Z,596.6
2023-03-19T12:00:57.893Z,597.2
2023-03-19T12:02:00.168Z,596.9
2023-03-19T12:03:02.716Z,597.1
2023-03-19T12:04:05.233Z,597.2
2023-03-19T12:05:07.485Z,597.5
2023-03-19T12:06:09.727Z,597
2023-03-19T12:07:11.978Z,597.3
2023-03-19T12:08:13.684Z,598
2023-03-19T12:09:16.196Z,597.9
2023-03-19T12:10:18.914Z,598
2023-03-19T12:11:21.438Z,598.3
2023-03-19T12:13:31.071Z,598.6
2023-03-19T12:14:33.591Z,598.6
2023-03-19T12:15:37.716Z,598.6
2023-03-19T12:17:44.242Z,598.8
2023-03-19T12:18:46.805Z,598.8
2023-03-19T12:19:49.087Z,599.4
2023-03-19T12:20:50.828Z,599.3
2023-03-19T12:21:53.355Z,598.9
2023-03-19T12:22:55.584Z,598.9
2023-03-19T12:23:58.088Z,599.3
2023-03-19T12:25:00.041Z,599.4
2023-03-19T12:26:02.669Z,599
2023-03-19T12:27:04.909Z,599.1
2023-03-19T12:28:07.415Z,599.4
2023-03-19T12:29:09.674Z,599.5
2023-03-19T12:30:12.183Z,599.8
2023-03-19T12:31:14.648Z,599.6
2023-03-19T12:32:17.160Z,599.9
2023-03-19T12:33:19.654Z,600.1
2023-03-19T12:34:22.170Z,600.3
2023-03-19T12:35:24.653Z,600.1
2023-03-19T12:36:26.712Z,600.1
2023-03-19T12:37:29.307Z,600.1
2023-03-19T12:38:31.846Z,600.5
2023-03-19T12:39:34.104Z,600.6
2023-03-19T12:40:36.616Z,600.3
2023-03-19T12:41:39.221Z,600.5
2023-03-19T12:42:41.739Z,600.2
2023-03-19T12:43:43.946Z,600.7
2023-03-19T12:44:46.435Z,600.7
2023-03-19T12:45:48.944Z,600.8
2023-03-19T12:46:51.895Z,601
2023-03-19T12:47:54.476Z,601.6
2023-03-19T12:48:56.987Z,601.5
2023-03-19T12:49:59.511Z,601.7
2023-03-19T12:51:01.751Z,602.1
2023-03-19T12:52:03.976Z,601.7
2023-03-19T12:53:05.916Z,601.5
2023-03-19T12:54:08.430Z,601.9
2023-03-19T12:55:10.923Z,601.5
2023-03-19T12:56:13.141Z,602.3
2023-03-19T12:57:15.886Z,601.9
2023-03-19T12:58:18.459Z,602.1
2023-03-19T12:59:20.730Z,602.1
2023-03-19T13:00:23.235Z,602.2
2023-03-19T13:01:26.122Z,602.1
2023-03-19T13:02:29.706Z,602.3
2023-03-19T13:03:32.303Z,602.2
2023-03-19T13:04:35.100Z,602.3
2023-03-19T13:05:37.687Z,602.3
2023-03-19T13:06:39.979Z,602.5
2023-03-19T13:07:42.253Z,602.8
2023-03-19T13:08:44.776Z,602.8
2023-03-19T13:09:47.277Z,602.7
2023-03-19T13:10:49.541Z,602.5
2023-03-19T13:11:51.813Z,602.5
2023-03-19T13:12:54.448Z,602.5
2023-03-19T13:13:56.977Z,603.1
2023-03-19T13:14:59.496Z,603.1
2023-03-19T13:16:02.129Z,602.5
2023-03-19T13:17:04.878Z,602.6
2023-03-19T13:18:07.426Z,602.8
2023-03-19T13:19:09.984Z,603.1
2023-03-19T13:20:12.564Z,603.2
2023-03-19T13:21:14.868Z,603.2
2023-03-19T13:22:17.390Z,603.3
2023-03-19T13:23:23.524Z,603.5
2023-03-19T13:24:25.791Z,603.2
2023-03-19T13:25:28.031Z,603.5
2023-03-19T13:26:30.569Z,603.3
2023-03-19T13:27:32.836Z,603.3
2023-03-19T13:28:35.466Z,603.7
2023-03-19T13:29:37.706Z,603.4
2023-03-19T13:30:39.932Z,603
2023-03-19T13:31:42.703Z,603.3
2023-03-19T13:32:45.296Z,603.3
2023-03-19T13:33:47.811Z,603.2
2023-03-19T13:34:50.413Z,603.5
2023-03-19T13:35:52.901Z,603.2
2023-03-19T13:36:55.557Z,603.1
2023-03-19T13:37:57.538Z,603.7
2023-03-19T13:38:59.471Z,603.4
2023-03-19T13:40:01.795Z,603.8
2023-03-19T13:41:04.059Z,603.7
2023-03-19T13:42:06.306Z,603.9
2023-03-19T13:44:13.917Z,604.2
2023-03-19T13:45:16.164Z,604